createdAt,value
2019-05-14T00:02:21.470Z,94604.59
2019-05-14T00:04:53.109Z,94599.85
2019-05-14T00:07:23.542Z,94595.68
2019-05-14T00:09:53.857Z,94584.91
2019-05-14T00:12:24.386Z,94583.32
2019-05-14T00:14:54.743Z,94590.37
2019-05-14T00:17:25.040Z,94594.28
2019-05-14T00:20:06.385Z,94601.31
2019-05-14T00:22:27.491Z,94586.88
2019-05-14T00:24:57.824Z,94591.08
2019-05-14T00:27:28.181Z,94588.64
2019-05-14T00:29:58.585Z,94586.79
2019-05-14T00:32:28.876Z,94593.30
2019-05-14T00:35:02.078Z,94586.52
2019-05-14T00:37:32.474Z,94575.48
2019-05-14T00:40:02.903Z,94575.41
2019-05-14T00:42:33.282Z,94571.72
2019-05-14T00:45:03.626Z,94574.91
2019-05-14T00:47:33.934Z,94573.82
2019-05-14T00:50:04.630Z,94573.78
2019-05-14T00:52:34.983Z,94580.38
2019-05-14T00:55:05.641Z,94582.67
2019-05-14T00:57:36.899Z,94583.16
2019-05-14T01:00:07.440Z,94587.39
2019-05-14T01:02:37.902Z,94585.03
2019-05-14T01:05:08.874Z,94576.27
2019-05-14T01:07:39.175Z,94573.45
2019-05-14T01:10:11.615Z,94583.61
2019-05-14T01:12:42.089Z,94577.78
2019-05-14T01:15:14.204Z,94578.35
2019-05-14T01:17:44.700Z,94576.91
2019-05-14T01:20:15.269Z,94573.03
2019-05-14T01:22:45.657Z,94574.84
2019-05-14T01:25:15.999Z,94574.73
2019-05-14T01:27:46.308Z,94577.64
2019-05-14T01:30:16.724Z,94585.44
2019-05-14T01:32:47.043Z,94581.95
2019-05-14T01:35:17.503Z,94591.73
2019-05-14T01:37:47.834Z,94591.96
2019-05-14T01:40:18.165Z,94568.16
2019-05-14T01:42:48.561Z,94565.31
2019-05-14T01:45:27.019Z,94568.44
2019-05-14T01:47:52.057Z,94570.22
2019-05-14T01:50:22.549Z,94559.03
2019-05-14T01:52:52.888Z,94564.59
2019-05-14T01:55:23.171Z,94569.77
2019-05-14T01:57:53.594Z,94572.14
2019-05-14T02:00:24.240Z,94566.87
2019-05-14T02:02:54.600Z,94571.57
2019-05-14T02:05:24.983Z,94575.60
2019-05-14T02:07:55.282Z,94568.16
2019-05-14T02:10:26.521Z,94567.41
2019-05-14T02:12:56.847Z,94552.00
2019-05-14T02:15:37.102Z,94554.36
2019-05-14T02:17:59.220Z,94545.45
2019-05-14T02:20:31.923Z,94543.92
2019-05-14T02:23:01.805Z,94552.77
2019-05-14T02:25:32.267Z,94551.20
2019-05-14T02:28:02.614Z,94548.37
2019-05-14T02:30:46.904Z,94545.74
2019-05-14T02:33:04.956Z,94544.95
2019-05-14T02:35:35.306Z,94547.55
2019-05-14T02:38:05.672Z,94548.09
2019-05-14T02:40:36.023Z,94545.98
2019-05-14T02:43:09.436Z,94550.67
2019-05-14T02:45:58.717Z,94559.59
2019-05-14T02:48:11.586Z,94564.33
2019-05-14T02:50:42.017Z,94569.55
2019-05-14T02:53:12.367Z,94570.62
2019-05-14T02:55:42.657Z,94576.92
2019-05-14T02:58:13.446Z,94589.02
2019-05-14T03:00:43.754Z,94587.66
2019-05-14T03:03:14.082Z,94593.73
2019-05-14T03:05:44.985Z,94596.13
2019-05-14T03:08:15.810Z,94608.84
2019-05-14T03:10:49.807Z,94612.34
2019-05-14T03:13:20.305Z,94624.80
2019-05-14T03:15:51.396Z,94634.55
2019-05-14T03:18:21.732Z,94639.66
2019-05-14T03:20:52.479Z,94624.75
2019-05-14T03:23:23.441Z,94626.44
2019-05-14T03:25:54.108Z,94627.12
2019-05-14T03:28:24.621Z,94633.28
2019-05-14T03:30:54.964Z,94639.42
2019-05-14T03:33:25.732Z,94641.05
2019-05-14T03:36:01.340Z,94646.88
2019-05-14T03:38:29.645Z,94643.52
2019-05-14T03:41:00.850Z,94653.03
2019-05-14T03:43:31.556Z,94648.62
2019-05-14T03:46:01.990Z,94650.66
2019-05-14T03:48:32.501Z,94631.34
2019-05-14T03:51:03.292Z,94628.02
2019-05-14T03:53:54.417Z,94617.19
2019-05-14T03:56:05.780Z,94606.38
2019-05-14T03:58:39.326Z,94605.33
2019-05-14T04:01:09.775Z,94604.06
2019-05-14T04:03:40.217Z,94593.14
2019-05-14T04:06:11.451Z,94597.30
2019-05-14T04:08:42.715Z,94595.42
2019-05-14T04:11:14.507Z,94585.52
2019-05-14T04:13:49.455Z,94586.52
2019-05-14T04:16:21.824Z,94592.05
2019-05-14T04:18:54.805Z,94590.20
2019-05-14T04:21:29.529Z,94599.47
2019-05-14T04:23:59.730Z,94597.30
2019-05-14T04:26:31.333Z,94593.38
2019-05-14T04:29:02.014Z,94601.71
2019-05-14T04:31:33.531Z,94595.73
2019-05-14T04:34:04.667Z,94590.82
2019-05-14T04:36:39.091Z,94594.36
2019-05-14T04:39:09.437Z,94591.01
2019-05-14T04:41:40.606Z,94587.02
2019-05-14T04:44:11.301Z,94583.80
2019-05-14T04:46:41.596Z,94586.67
2019-05-14T04:49:11.961Z,94584.72
2019-05-14T04:51:42.580Z,94579.33
2019-05-14T04:54:13.885Z,94574.89
2019-05-14T04:56:44.263Z,94572.22
2019-05-14T04:59:14.920Z,94572.39
2019-05-14T05:01:49.012Z,94575.30
2019-05-14T05:04:20.323Z,94579.99
2019-05-14T05:06:51.280Z,94574.48
2019-05-14T05:09:21.714Z,94558.54
2019-05-14T05:11:52.585Z,94568.78
2019-05-14T05:14:23.899Z,94567.95
2019-05-14T05:16:54.508Z,94575.36
2019-05-14T05:19:25.199Z,94575.58
2019-05-14T05:21:55.521Z,94571.28
2019-05-14T05:24:25.861Z,94565.52
2019-05-14T05:26:58.534Z,94568.47
2019-05-14T05:29:28.808Z,94559.05
2019-05-14T05:31:59.595Z,94558.83
2019-05-14T05:34:29.910Z,94560.42
2019-05-14T05:37:00.257Z,94565.13
2019-05-14T05:39:30.939Z,94572.95
2019-05-14T05:42:01.450Z,94577.20
2019-05-14T05:44:31.784Z,94567.86
2019-05-14T05:47:03.738Z,94571.73
2019-05-14T05:49:34.095Z,94562.08
2019-05-14T05:52:04.420Z,94556.58
2019-05-14T05:54:35.153Z,94562.36
2019-05-14T05:57:06.242Z,94558.14
2019-05-14T05:59:39.054Z,94562.35
2019-05-14T06:02:09.516Z,94557.11
2019-05-14T06:04:39.958Z,94569.41
2019-05-14T06:07:10.585Z,94548.47
2019-05-14T06:09:41.077Z,94548.98
2019-05-14T06:12:11.423Z,94553.44
2019-05-14T06:14:42.040Z,94553.70
2019-05-14T06:17:12.867Z,94552.13
2019-05-14T06:19:43.170Z,94551.33
2019-05-14T06:22:14.071Z,94558.16
2019-05-14T06:24:44.482Z,94556.84
2019-05-14T06:27:14.835Z,94563.17
2019-05-14T06:29:45.338Z,94572.88
2019-05-14T06:32:18.453Z,94573.39
2019-05-14T06:34:48.911Z,94561.32
2019-05-14T06:37:19.923Z,94553.95
2019-05-14T06:39:50.320Z,94552.91
2019-05-14T06:42:20.750Z,94538.23
2019-05-14T06:44:51.407Z,94522.74
2019-05-14T06:47:21.701Z,94509.38
2019-05-14T06:49:52.056Z,94514.37
2019-05-14T06:52:22.423Z,94500.98
2019-05-14T06:54:52.761Z,94499.42
2019-05-14T06:57:24.171Z,94507.28
2019-05-14T06:59:54.789Z,94503.32
2019-05-14T07:02:25.363Z,94264.33
2019-05-14T07:04:55.673Z,94516.13
2019-05-14T07:07:26.313Z,94512.41
2019-05-14T07:09:58.229Z,94516.30
2019-05-14T07:12:29.467Z,94514.56
2019-05-14T07:14:59.828Z,94510.50
2019-05-14T07:17:30.272Z,94499.78
2019-05-14T07:20:01.065Z,94501.09
2019-05-14T07:22:31.354Z,94506.25
2019-05-14T07:25:01.673Z,94512.98
2019-05-14T07:27:33.481Z,94509.39
2019-05-14T07:30:03.915Z,94508.86
2019-05-14T07:32:34.223Z,94502.68
2019-05-14T07:35:05.314Z,94504.09
2019-05-14T07:37:35.723Z,94509.83
2019-05-14T07:40:08.513Z,94517.16
2019-05-14T07:42:38.991Z,94512.04
2019-05-14T07:45:10.648Z,94518.53
2019-05-14T07:47:41.033Z,94516.62
2019-05-14T07:50:11.806Z,94522.30
2019-05-14T07:52:45.818Z,94522.61
2019-05-14T07:55:18.354Z,94527.42
2019-05-14T07:57:48.692Z,94520.14
2019-05-14T08:00:19.632Z,94515.13
2019-05-14T08:02:50.394Z,94515.13
2019-05-14T08:05:21.296Z,94507.11
2019-05-14T08:07:51.632Z,94504.00
2019-05-14T08:10:22.310Z,94502.20
2019-05-14T08:12:53.041Z,94513.48
2019-05-14T08:15:23.513Z,94515.41
2019-05-14T08:17:53.907Z,94501.62
2019-05-14T08:20:25.025Z,94500.75
2019-05-14T08:22:55.317Z,94499.61
2019-05-14T08:25:28.133Z,94496.94
2019-05-14T08:27:58.678Z,94496.86
2019-05-14T08:30:29.245Z,94496.86
2019-05-14T08:32:59.585Z,94495.89
2019-05-14T08:35:34.049Z,94478.22
2019-05-14T08:38:07.622Z,94478.22
2019-05-14T08:40:34.765Z,94480.41
2019-05-14T08:43:05.420Z,94471.86
2019-05-14T08:45:35.729Z,94472.74
2019-05-14T08:48:06.464Z,94472.74
2019-05-14T08:50:38.732Z,94475.51
2019-05-14T08:53:09.187Z,94475.51
2019-05-14T08:55:39.878Z,94474.78
2019-05-14T08:58:13.733Z,94468.27
2019-05-14T09:00:42.576Z,94472.19
2019-05-14T09:03:13.274Z,94476.59
2019-05-14T09:05:43.938Z,94470.99
2019-05-14T09:08:14.331Z,94481.14
2019-05-14T09:10:44.814Z,94479.75
2019-05-14T09:13:18.186Z,94473.59
2019-05-14T09:15:48.889Z,94471.48
2019-05-14T09:18:19.543Z,94463.61
2019-05-14T09:20:49.887Z,94454.91
2019-05-14T09:23:20.619Z,94455.45
2019-05-14T09:25:53.283Z,94455.95
2019-05-14T09:28:24.528Z,94448.30
2019-05-14T09:30:55.004Z,94446.23
2019-05-14T09:33:25.679Z,94441.98
2019-05-14T09:36:11.038Z,94439.41
2019-05-14T09:38:29.480Z,94428.08
2019-05-14T09:41:10.530Z,94430.37
2019-05-14T09:43:33.413Z,94429.89
2019-05-14T09:46:03.709Z,94427.53
2019-05-14T09:48:34.587Z,94428.20
2019-05-14T09:51:05.003Z,94422.65
2019-05-14T09:53:38.156Z,94417.02
2019-05-14T09:56:09.087Z,94420.14
2019-05-14T09:58:39.743Z,94413.50
2019-05-14T10:01:10.618Z,94406.73
2019-05-14T10:03:40.974Z,94408.55
2019-05-14T10:06:11.300Z,94404.20
2019-05-14T10:08:42.085Z,94403.05
2019-05-14T10:11:12.627Z,94400.00
2019-05-14T10:13:42.899Z,94400.03
2019-05-14T10:16:13.584Z,94403.53
2019-05-14T10:18:43.990Z,94398.79
2019-05-14T10:21:14.353Z,94397.77
2019-05-14T10:23:45.612Z,94406.77
2019-05-14T10:26:18.353Z,94406.00
2019-05-14T10:28:48.740Z,94398.20
2019-05-14T10:31:19.202Z,94395.50
2019-05-14T10:33:49.637Z,94396.34
2019-05-14T10:36:20.356Z,94388.02
2019-05-14T10:38:50.973Z,94391.35
2019-05-14T10:41:21.293Z,94397.71
2019-05-14T10:43:51.847Z,94387.56
2019-05-14T10:46:22.502Z,94383.97
2019-05-14T10:48:53.069Z,94392.16
2019-05-14T10:51:23.400Z,94372.95
2019-05-14T10:53:53.748Z,94384.37
2019-05-14T10:56:24.424Z,94377.33
2019-05-14T10:58:54.985Z,94376.11
2019-05-14T11:01:25.332Z,94378.66
2019-05-14T11:03:55.919Z,94381.31
2019-05-14T11:06:29.098Z,94368.79
2019-05-14T11:08:58.643Z,94367.95
2019-05-14T11:11:29.197Z,94372.02
2019-05-14T11:13:59.882Z,94375.41
2019-05-14T11:16:30.185Z,94377.22
2019-05-14T11:19:00.560Z,94372.47
2019-05-14T11:21:32.011Z,94379.45
2019-05-14T11:24:02.337Z,94387.56
2019-05-14T11:26:34.389Z,94369.77
2019-05-14T11:29:04.865Z,94145.55
2019-05-14T11:31:35.295Z,94371.62
2019-05-14T11:34:08.208Z,94371.97
2019-05-14T11:36:38.849Z,94371.50
2019-05-14T11:39:10.479Z,94362.02
2019-05-14T11:41:41.108Z,94355.39
2019-05-14T11:44:11.436Z,94367.18
2019-05-14T11:46:51.363Z,94355.71
2019-05-14T11:49:14.037Z,94356.30
2019-05-14T11:52:00.946Z,94339.97
2019-05-14T11:54:18.762Z,94334.22
2019-05-14T11:56:49.948Z,94342.94
2019-05-14T11:59:20.238Z,94330.90
2019-05-14T12:01:54.767Z,94333.12
2019-05-14T12:04:22.838Z,94344.75
2019-05-14T12:06:53.336Z,94354.75
2019-05-14T12:09:24.008Z,94345.33
2019-05-14T12:11:54.530Z,94348.27
2019-05-14T12:14:24.852Z,94348.58
2019-05-14T12:16:55.733Z,94346.94
2019-05-14T12:19:28.184Z,94330.98
2019-05-14T12:22:06.607Z,94327.92
2019-05-14T12:24:30.450Z,94330.05
2019-05-14T12:27:01.135Z,94330.63
2019-05-14T12:29:31.603Z,94321.42
2019-05-14T12:32:02.071Z,94305.91
2019-05-14T12:34:32.670Z,94305.91
2019-05-14T12:37:03.082Z,94303.48
2019-05-14T12:39:33.387Z,94303.48
2019-05-14T12:42:04.201Z,94290.91
2019-05-14T12:44:37.385Z,94283.39
2019-05-14T12:47:09.227Z,94285.25
2019-05-14T12:49:38.953Z,94281.58
2019-05-14T12:52:24.312Z,94276.13
2019-05-14T12:54:41.563Z,94280.52
2019-05-14T12:57:12.316Z,94269.63
2019-05-14T12:59:42.983Z,94269.63
2019-05-14T13:02:13.563Z,94277.95
2019-05-14T13:04:43.852Z,94276.30
2019-05-14T13:07:14.310Z,94261.88
2019-05-14T13:09:44.817Z,94265.48
2019-05-14T13:12:15.353Z,94257.80
2019-05-14T13:14:45.639Z,94252.75
2019-05-14T13:17:18.557Z,94267.17
2019-05-14T13:19:48.985Z,94267.91
2019-05-14T13:22:36.386Z,94267.13
2019-05-14T13:24:51.781Z,94259.00
2019-05-14T13:27:23.565Z,94272.30
2019-05-14T13:29:53.951Z,94264.16
2019-05-14T13:32:24.529Z,94250.96
2019-05-14T13:34:54.816Z,94265.38
2019-05-14T13:37:25.501Z,94264.43
2019-05-14T13:39:59.015Z,94264.43
2019-05-14T13:42:29.581Z,94251.02
2019-05-14T13:45:00.525Z,94256.68
2019-05-14T13:47:31.033Z,94256.68
2019-05-14T13:50:01.424Z,94246.86
2019-05-14T13:52:33.087Z,94243.70
2019-05-14T13:55:05.222Z,94245.70
2019-05-14T13:57:35.650Z,94240.86
2019-05-14T14:00:11.780Z,94224.74
2019-05-14T14:02:39.206Z,94233.55
2019-05-14T14:05:09.748Z,94227.72
2019-05-14T14:07:44.508Z,94135.97
2019-05-14T14:10:13.550Z,94223.87
2019-05-14T14:12:44.086Z,94223.87
2019-05-14T14:15:15.673Z,94204.98
2019-05-14T14:17:46.097Z,94204.98
2019-05-14T14:20:19.339Z,94210.29
2019-05-14T14:22:49.260Z,94209.67
2019-05-14T14:25:19.580Z,94209.67
2019-05-14T14:27:49.903Z,94206.97
2019-05-14T14:30:20.709Z,94198.20
2019-05-14T14:32:51.346Z,94198.56
2019-05-14T14:35:24.138Z,94198.56
2019-05-14T14:37:54.149Z,94183.98
2019-05-14T14:40:24.868Z,94187.02
2019-05-14T14:42:55.193Z,94184.52
2019-05-14T14:45:29.016Z,94183.53
2019-05-14T14:48:01.221Z,94166.51
2019-05-14T14:50:30.408Z,94177.96
2019-05-14T14:53:00.902Z,94165.26
2019-05-14T14:55:31.747Z,94170.40
2019-05-14T14:58:02.089Z,94172.50
2019-05-14T15:00:32.393Z,94173.86
2019-05-14T15:03:03.132Z,94162.61
2019-05-14T15:05:33.642Z,94172.77
2019-05-14T15:08:04.025Z,94168.83
2019-05-14T15:10:35.162Z,94152.25
2019-05-14T15:13:05.573Z,94143.60
2019-05-14T15:15:35.962Z,94141.59
2019-05-14T15:18:09.500Z,94138.64
2019-05-14T15:20:38.822Z,94141.02
2019-05-14T15:23:10.038Z,94094.90
2019-05-14T15:25:40.451Z,94148.80
2019-05-14T15:28:10.829Z,94123.94
2019-05-14T15:30:41.536Z,94123.94
2019-05-14T15:33:12.137Z,94149.03
2019-05-14T15:35:42.458Z,94139.23
2019-05-14T15:38:13.252Z,94151.12
2019-05-14T15:40:43.855Z,94139.22
2019-05-14T15:43:14.252Z,94153.02
2019-05-14T15:45:44.527Z,94152.41
2019-05-14T15:48:15.177Z,94129.95
2019-05-14T15:50:46.106Z,94130.28
2019-05-14T15:53:19.275Z,94132.25
2019-05-14T15:55:49.089Z,94129.84
2019-05-14T15:58:21.264Z,94134.89
2019-05-14T16:00:52.482Z,94142.58
2019-05-14T16:03:22.805Z,94135.17
2019-05-14T16:05:53.435Z,94133.28
2019-05-14T16:08:24.101Z,94123.25
2019-05-14T16:10:54.395Z,94136.92
2019-05-14T16:13:24.855Z,94142.86
2019-05-14T16:15:55.142Z,94145.42
2019-05-14T16:18:25.588Z,94132.70
2019-05-14T16:20:59.084Z,94128.77
2019-05-14T16:23:28.317Z,94133.34
2019-05-14T16:25:59.154Z,94128.04
2019-05-14T16:28:29.865Z,94141.42
2019-05-14T16:31:00.161Z,94140.58
2019-05-14T16:33:30.691Z,94135.78
2019-05-14T16:36:01.436Z,94151.92
2019-05-14T16:38:31.816Z,94162.96
2019-05-14T16:41:02.132Z,94163.21
2019-05-14T16:43:32.860Z,94170.84
2019-05-14T16:46:03.229Z,94168.52
2019-05-14T16:48:33.570Z,94150.83
2019-05-14T16:51:04.289Z,94160.59
2019-05-14T16:53:34.818Z,94160.38
2019-05-14T16:56:05.130Z,94171.97
2019-05-14T16:58:38.342Z,94168.43
2019-05-14T17:01:09.614Z,94169.04
2019-05-14T17:03:40.396Z,94163.74
2019-05-14T17:06:11.058Z,94162.52
2019-05-14T17:08:41.827Z,94159.70
2019-05-14T17:11:12.301Z,94158.14
2019-05-14T17:13:42.683Z,94157.87
2019-05-14T17:16:13.067Z,94162.08
2019-05-14T17:18:43.528Z,94157.81
2019-05-14T17:21:14.123Z,94156.40
2019-05-14T17:23:44.587Z,94163.13
2019-05-14T17:26:15.448Z,94167.02
2019-05-14T17:28:48.626Z,94165.66
2019-05-14T17:31:19.194Z,94167.65
2019-05-14T17:33:49.865Z,94170.06
2019-05-14T17:36:20.578Z,94163.77
2019-05-14T17:38:50.865Z,94178.11
2019-05-14T17:41:21.201Z,94185.62
2019-05-14T17:43:52.018Z,94184.08
2019-05-14T17:46:22.298Z,94185.34
2019-05-14T17:48:52.634Z,94174.27
2019-05-14T17:51:23.245Z,94175.68
2019-05-14T17:53:53.941Z,94181.84
2019-05-14T17:56:24.616Z,94179.30
2019-05-14T17:58:54.967Z,94167.84
2019-05-14T18:01:25.397Z,94171.47
2019-05-14T18:03:58.260Z,94178.09
2019-05-14T18:06:28.612Z,94173.72
2019-05-14T18:08:59.107Z,93910.35
2019-05-14T18:11:29.590Z,94174.08
2019-05-14T18:14:00.133Z,94181.38
2019-05-14T18:16:30.457Z,94176.83
2019-05-14T18:19:00.925Z,94175.65
2019-05-14T18:21:33.391Z,94155.71
2019-05-14T18:24:04.339Z,94166.58
2019-05-14T18:26:34.676Z,94170.84
2019-05-14T18:29:04.985Z,94167.55
2019-05-14T18:31:35.897Z,94171.05
2019-05-14T18:34:06.202Z,94176.22
2019-05-14T18:36:39.292Z,94184.39
2019-05-14T18:39:09.447Z,94186.63
2019-05-14T18:41:39.887Z,94195.52
2019-05-14T18:44:10.220Z,94189.08
2019-05-14T18:46:40.723Z,94194.20
2019-05-14T18:49:11.470Z,94193.45
2019-05-14T18:51:41.755Z,94180.38
2019-05-14T18:54:12.523Z,94191.66
2019-05-14T18:56:42.813Z,94185.05
2019-05-14T18:59:13.615Z,94179.55
2019-05-14T19:01:44.112Z,94181.33
2019-05-14T19:04:14.409Z,94184.44
2019-05-14T19:06:45.188Z,94197.88
2019-05-14T19:09:15.736Z,94195.07
2019-05-14T19:11:48.060Z,94187.72
2019-05-14T19:14:18.718Z,94180.85
2019-05-14T19:16:49.560Z,94175.11
2019-05-14T19:19:20.709Z,94177.83
2019-05-14T19:21:51.342Z,94195.21
2019-05-14T19:24:22.210Z,94190.00
2019-05-14T19:26:53.562Z,94189.91
2019-05-14T19:29:25.410Z,94183.52
2019-05-14T19:31:55.694Z,94181.98
2019-05-14T19:34:28.559Z,94194.91
2019-05-14T19:36:58.819Z,94185.32
2019-05-14T19:39:29.198Z,94188.81
2019-05-14T19:41:59.568Z,94190.47
2019-05-14T19:44:30.013Z,94203.96
2019-05-14T19:47:00.325Z,94199.27
2019-05-14T19:49:30.660Z,94197.44
2019-05-14T19:52:01.381Z,94196.13
2019-05-14T19:54:31.715Z,94196.36
2019-05-14T19:57:02.037Z,94201.83
2019-05-14T19:59:32.802Z,94208.16
2019-05-14T20:02:03.299Z,94206.25
2019-05-14T20:04:34.074Z,94213.34
2019-05-14T20:07:04.367Z,94211.95
2019-05-14T20:09:34.701Z,94229.47
2019-05-14T20:12:05.358Z,94239.80
2019-05-14T20:14:38.087Z,94238.44
2019-05-14T20:17:08.936Z,94236.13
2019-05-14T20:19:40.840Z,94233.56
2019-05-14T20:22:11.396Z,94251.45
2019-05-14T20:24:41.916Z,94281.34
2019-05-14T20:27:12.610Z,94274.80
2019-05-14T20:29:43.342Z,94286.85
2019-05-14T20:32:13.774Z,94280.32
2019-05-14T20:34:44.139Z,94287.14
2019-05-14T20:37:14.431Z,94303.34
2019-05-14T20:39:45.079Z,94312.66
2019-05-14T20:42:15.534Z,94313.55
2019-05-14T20:44:45.933Z,94295.80
2019-05-14T20:47:18.876Z,94303.17
2019-05-14T20:49:49.033Z,94291.49
2019-05-14T20:52:19.524Z,94300.22
2019-05-14T20:54:50.238Z,94304.23
2019-05-14T20:57:26.807Z,94311.47
2019-05-14T20:59:52.932Z,94310.95
2019-05-14T21:02:23.312Z,94311.86
2019-05-14T21:04:55.530Z,94326.44
2019-05-14T21:07:25.990Z,94319.91
2019-05-14T21:09:56.328Z,94316.21
2019-05-14T21:12:28.899Z,94314.64
2019-05-14T21:14:59.316Z,94322.94
2019-05-14T21:17:29.625Z,94344.48
2019-05-14T21:20:00.111Z,94347.39
2019-05-14T21:22:30.665Z,94339.03
2019-05-14T21:25:00.976Z,94321.34
2019-05-14T21:27:43.856Z,94321.09
2019-05-14T21:30:04.462Z,94325.45
2019-05-14T21:32:34.751Z,94322.41
2019-05-14T21:35:05.592Z,94311.90
2019-05-14T21:37:35.939Z,94316.09
2019-05-14T21:40:09.159Z,94319.65
2019-05-14T21:42:39.316Z,94321.38
2019-05-14T21:45:10.139Z,94308.67
2019-05-14T21:47:40.546Z,94331.89
2019-05-14T21:50:11.767Z,94338.19
2019-05-14T21:52:42.579Z,94333.17
2019-05-14T21:55:14.243Z,94330.52
2019-05-14T21:57:54.211Z,94331.44
2019-05-14T22:00:24.831Z,94327.98
2019-05-14T22:02:58.455Z,94325.16
2019-05-14T22:05:29.280Z,94333.59
2019-05-14T22:07:59.609Z,94340.44
2019-05-14T22:10:30.346Z,94352.79
2019-05-14T22:13:00.794Z,94356.55
2019-05-14T22:15:31.190Z,94357.12
2019-05-14T22:18:01.611Z,94355.84
2019-05-14T22:20:31.893Z,94355.90
2019-05-14T22:23:02.370Z,94332.30
2019-05-14T22:25:32.997Z,94320.81
2019-05-14T22:28:12.307Z,94328.54
2019-05-14T22:30:35.374Z,94326.97
2019-05-14T22:33:08.512Z,94326.47
2019-05-14T22:35:39.541Z,94318.72
2019-05-14T22:38:10.056Z,94327.92
2019-05-14T22:40:40.741Z,94329.30
2019-05-14T22:43:11.154Z,94342.47
2019-05-14T22:45:41.546Z,94349.06
2019-05-14T22:48:11.914Z,94350.27
2019-05-14T22:50:42.287Z,94360.08
2019-05-14T22:53:12.862Z,94348.22
2019-05-14T22:55:43.280Z,94356.95
2019-05-14T22:58:25.179Z,94346.69
2019-05-14T23:00:58.037Z,94355.77
2019-05-14T23:03:20.829Z,94365.31
2019-05-14T23:05:50.387Z,94338.91
2019-05-14T23:08:21.005Z,94336.92
2019-05-14T23:10:51.663Z,94339.90
2019-05-14T23:13:23.030Z,94330.00
2019-05-14T23:15:53.306Z,94334.11
2019-05-14T23:18:23.665Z,94338.01
2019-05-14T23:20:54.368Z,94327.56
2019-05-14T23:23:24.883Z,94326.25
2019-05-14T23:25:55.165Z,94341.00
2019-05-14T23:28:41.054Z,94335.49
2019-05-14T23:30:59.198Z,94334.11
2019-05-14T23:33:29.533Z,94336.80
2019-05-14T23:36:00.364Z,94345.09
2019-05-14T23:38:31.011Z,94351.13
2019-05-14T23:41:01.610Z,94364.18
2019-05-14T23:43:32.174Z,94359.58
2019-05-14T23:46:02.452Z,94359.95
2019-05-14T23:48:33.078Z,94365.48
2019-05-14T23:51:03.661Z,94365.66
2019-05-14T23:53:33.940Z,94369.73
2019-05-14T23:56:04.664Z,94367.91
2019-05-14T23:58:35.332Z,94363.29
